sensor_id;sensor_type;location;lat;lon;timestamp;pressure;altitude;pressure_sealevel;temperature;humidity
61474;BME280;53694;49.784;30.150;2023-06-22T00:00:09;99903.23;;;22.43;68.00
61474;BME280;53694;49.784;30.150;2023-06-22T00:01:11;99912.27;;;22.15;68.97
61474;BME280;53694;49.784;30.150;2023-06-22T00:02:12;99910.91;;;21.83;70.07
61474;BME280;53694;49.784;30.150;2023-06-22T00:03:14;99908.00;;;21.51;71.09
61474;BME280;53694;49.784;30.150;2023-06-22T00:04:15;99913.30;;;21.21;72.14
61474;BME280;53694;49.784;30.150;2023-06-22T00:05:17;99902.14;;;20.98;73.10
61474;BME280;53694;49.784;30.150;2023-06-22T00:06:19;99905.42;;;20.93;73.85
61474;BME280;53694;49.784;30.150;2023-06-22T00:07:20;99899.78;;;20.96;74.03
61474;BME280;53694;49.784;30.150;2023-06-22T00:08:22;99903.13;;;21.11;73.89
61474;BME280;53694;49.784;30.150;2023-06-22T00:09:23;99906.75;;;21.32;73.59
61474;BME280;53694;49.784;30.150;2023-06-22T00:10:25;99905.92;;;21.55;72.66
61474;BME280;53694;49.784;30.150;2023-06-22T00:11:27;99897.61;;;21.71;71.84
61474;BME280;53694;49.784;30.150;2023-06-22T00:12:28;99902.38;;;21.90;70.89
61474;BME280;53694;49.784;30.150;2023-06-22T00:13:30;99905.67;;;22.05;70.19
61474;BME280;53694;49.784;30.150;2023-06-22T00:14:31;99910.19;;;22.19;69.55
61474;BME280;53694;49.784;30.150;2023-06-22T00:15:33;99903.22;;;22.27;69.08
61474;BME280;53694;49.784;30.150;2023-06-22T00:16:35;99903.84;;;22.35;68.59
61474;BME280;53694;49.784;30.150;2023-06-22T00:17:36;99908.20;;;22.36;68.60
61474;BME280;53694;49.784;30.150;2023-06-22T00:18:38;99906.80;;;22.28;68.52
61474;BME280;53694;49.784;30.150;2023-06-22T00:19:39;99906.80;;;22.08;69.08
61474;BME280;53694;49.784;30.150;2023-06-22T00:20:41;99905.77;;;21.82;69.94
61474;BME280;53694;49.784;30.150;2023-06-22T00:21:43;99902.69;;;21.56;70.78
61474;BME280;53694;49.784;30.150;2023-06-22T00:22:44;99907.53;;;21.32;71.44
61474;BME280;53694;49.784;30.150;2023-06-22T00:23:46;99911.91;;;21.10;72.20
61474;BME280;53694;49.784;30.150;2023-06-22T00:24:48;99906.20;;;20.93;72.93
61474;BME280;53694;49.784;30.150;2023-06-22T00:25:49;99910.66;;;20.91;73.20
61474;BME280;53694;49.784;30.150;2023-06-22T00:26:51;99905.75;;;20.99;73.07
61474;BME280;53694;49.784;30.150;2023-06-22T00:27:52;99910.22;;;21.16;72.87
61474;BME280;53694;49.784;30.150;2023-06-22T00:28:54;99907.91;;;21.34;72.33
61474;BME280;53694;49.784;30.150;2023-06-22T00:29:55;99913.52;;;21.54;71.49
61474;BME280;53694;49.784;30.150;2023-06-22T00:30:57;99909.58;;;21.71;70.62
61474;BME280;53694;49.784;30.150;2023-06-22T00:31:58;99908.05;;;21.87;69.96
61474;BME280;53694;49.784;30.150;2023-06-22T00:33:00;99910.97;;;22.00;68.98
61474;BME280;53694;49.784;30.150;2023-06-22T00:34:02;99917.13;;;22.11;68.79
61474;BME280;53694;49.784;30.150;2023-06-22T00:35:03;99912.61;;;22.17;68.37
61474;BME280;53694;49.784;30.150;2023-06-22T00:36:05;99915.52;;;22.13;68.10
61474;BME280;53694;49.784;30.150;2023-06-22T00:37:07;99920.66;;;21.95;68.11
61474;BME280;53694;49.784;30.150;2023-06-22T00:38:08;99918.75;;;21.72;68.64
61474;BME280;53694;49.784;30.150;2023-06-22T00:39:10;99924.83;;;21.47;69.44
61474;BME280;53694;49.784;30.150;2023-06-22T00:40:12;99929.27;;;21.21;70.56
61474;BME280;53694;49.784;30.150;2023-06-22T00:41:13;99927.27;;;20.98;71.46
61474;BME280;53694;49.784;30.150;2023-06-22T00:42:15;99930.01;;;20.78;72.63
61474;BME280;53694;49.784;30.150;2023-06-22T00:43:16;99932.61;;;20.65;73.44
61474;BME280;53694;49.784;30.150;2023-06-22T00:44:18;99928.59;;;20.66;73.80
61474;BME280;53694;49.784;30.150;2023-06-22T00:45:19;99921.98;;;20.80;73.79
61474;BME280;53694;49.784;30.150;2023-06-22T00:46:22;99927.64;;;21.00;73.39
61474;BME280;53694;49.784;30.150;2023-06-22T00:47:24;99926.83;;;21.23;72.62
61474;BME280;53694;49.784;30.150;2023-06-22T00:48:26;99927.24;;;21.45;71.86
61474;BME280;53694;49.784;30.150;2023-06-22T00:49:28;99929.21;;;21.68;71.17
61474;BME280;53694;49.784;30.150;2023-06-22T00:50:32;99923.19;;;21.89;70.40
61474;BME280;53694;49.784;30.150;2023-06-22T00:51:34;99930.70;;;22.12;69.72
61474;BME280;53694;49.784;30.150;2023-06-22T00:52:36;99919.92;;;22.31;68.80
61474;BME280;53694;49.784;30.150;2023-06-22T00:53:37;99923.53;;;22.48;67.89
61474;BME280;53694;49.784;30.150;2023-06-22T00:54:41;99926.52;;;22.57;67.15
61474;BME280;53694;49.784;30.150;2023-06-22T00:55:43;99925.02;;;22.52;66.59
61474;BME280;53694;49.784;30.150;2023-06-22T00:56:45;99923.84;;;22.33;66.87
61474;BME280;53694;49.784;30.150;2023-06-22T00:57:47;99926.75;;;22.10;67.37
61474;BME280;53694;49.784;30.150;2023-06-22T00:58:49;99923.32;;;21.82;68.02
61474;BME280;53694;49.784;30.150;2023-06-22T00:59:51;99921.91;;;21.54;68.82
61474;BME280;53694;49.784;30.150;2023-06-22T01:00:52;99916.38;;;21.27;69.67
61474;BME280;53694;49.784;30.150;2023-06-22T01:01:54;99921.22;;;21.03;70.66
61474;BME280;53694;49.784;30.150;2023-06-22T01:02:56;99918.84;;;20.78;71.68
61474;BME280;53694;49.784;30.150;2023-06-22T01:03:58;99923.16;;;20.56;72.79
61474;BME280;53694;49.784;30.150;2023-06-22T01:04:59;99919.41;;;20.39;73.59
61474;BME280;53694;49.784;30.150;2023-06-22T01:06:13;99921.84;;;20.37;74.08
61474;BME280;53694;49.784;30.150;2023-06-22T01:07:28;99922.53;;;20.44;74.29
61474;BME280;53694;49.784;30.150;2023-06-22T01:08:42;99923.85;;;20.63;74.23
61474;BME280;53694;49.784;30.150;2023-06-22T01:09:53;99915.45;;;20.90;73.46
61474;BME280;53694;49.784;30.150;2023-06-22T01:11:07;99920.52;;;21.19;72.64
61474;BME280;53694;49.784;30.150;2023-06-22T01:12:07;99918.45;;;21.46;72.21
61474;BME280;53694;49.784;30.150;2023-06-22T01:14:43;99913.94;;;21.92;69.78
61474;BME280;53694;49.784;30.150;2023-06-22T01:15:53;99914.70;;;22.13;68.81
61474;BME280;53694;49.784;30.150;2023-06-22T01:16:51;99912.73;;;22.30;67.51
61474;BME280;53694;49.784;30.150;2023-06-22T01:17:56;99917.23;;;22.43;67.23
61474;BME280;53694;49.784;30.150;2023-06-22T01:19:06;99907.77;;;22.37;66.32
61474;BME280;53694;49.784;30.150;2023-06-22T01:20:06;99916.56;;;22.19;66.73
61474;BME280;53694;49.784;30.150;2023-06-22T01:21:12;99912.71;;;21.93;67.22
61474;BME280;53694;49.784;30.150;2023-06-22T01:22:16;99918.88;;;21.65;68.02
61474;BME280;53694;49.784;30.150;2023-06-22T01:23:26;99920.30;;;21.33;69.10
61474;BME280;53694;49.784;30.150;2023-06-22T01:28:49;99918.19;;;20.13;74.29
61474;BME280;53694;49.784;30.150;2023-06-22T01:29:52;99914.20;;;20.14;74.66
61474;BME280;53694;49.784;30.150;2023-06-22T01:30:57;99927.11;;;20.31;74.31
61474;BME280;53694;49.784;30.150;2023-06-22T01:31:59;99926.44;;;20.51;73.75
61474;BME280;53694;49.784;30.150;2023-06-22T01:33:02;99928.16;;;20.68;73.12
61474;BME280;53694;49.784;30.150;2023-06-22T01:34:06;99925.11;;;20.86;72.64
61474;BME280;53694;49.784;30.150;2023-06-22T01:35:10;99927.59;;;21.04;72.09
61474;BME280;53694;49.784;30.150;2023-06-22T01:36:13;99930.06;;;21.21;71.27
61474;BME280;53694;49.784;30.150;2023-06-22T01:37:15;99939.08;;;21.33;70.68
61474;BME280;53694;49.784;30.150;2023-06-22T01:38:17;99930.13;;;21.41;70.31
61474;BME280;53694;49.784;30.150;2023-06-22T01:39:19;99943.54;;;21.50;70.19
61474;BME280;53694;49.784;30.150;2023-06-22T01:40:23;99943.75;;;21.59;69.90
61474;BME280;53694;49.784;30.150;2023-06-22T01:41:26;99933.58;;;21.69;69.08
61474;BME280;53694;49.784;30.150;2023-06-22T01:42:28;99940.16;;;21.79;68.32
61474;BME280;53694;49.784;30.150;2023-06-22T01:43:30;99928.64;;;21.77;67.94
61474;BME280;53694;49.784;30.150;2023-06-22T01:44:32;99928.64;;;21.77;67.94
61474;BME280;53694;49.784;30.150;2023-06-22T01:45:35;99930.56;;;21.60;67.96
61474;BME280;53694;49.784;30.150;2023-06-22T01:46:37;99925.02;;;21.36;68.57
61474;BME280;53694;49.784;30.150;2023-06-22T01:47:40;99922.35;;;21.06;69.20
61474;BME280;53694;49.784;30.150;2023-06-22T01:48:42;99930.84;;;20.75;70.33
61474;BME280;53694;49.784;30.150;2023-06-22T01:49:44;99924.48;;;20.47;71.46
61474;BME280;53694;49.784;30.150;2023-06-22T01:50:47;99927.63;;;20.22;72.71
61474;BME280;53694;49.784;30.150;2023-06-22T01:51:48;99925.45;;;20.07;74.12
61474;BME280;53694;49.784;30.150;2023-06-22T01:52:50;99921.91;;;20.03;74.66
61474;BME280;53694;49.784;30.150;2023-06-22T01:53:51;99920.61;;;20.11;74.73
61474;BME280;53694;49.784;30.150;2023-06-22T01:54:53;99927.20;;;20.24;74.51
61474;BME280;53694;49.784;30.150;2023-06-22T01:55:56;99923.80;;;20.40;74.15
61474;BME280;53694;49.784;30.150;2023-06-22T01:56:57;99924.34;;;20.58;73.47
61474;BME280;53694;49.784;30.150;2023-06-22T01:57:59;99929.62;;;20.76;72.91
61474;BME280;53694;49.784;30.150;2023-06-22T02:00:15;99934.13;;;21.17;71.96
61474;BME280;53694;49.784;30.150;2023-06-22T02:01:25;99933.77;;;21.38;70.86
61474;BME280;53694;49.784;30.150;2023-06-22T02:02:29;99937.45;;;21.55;69.99
61474;BME280;53694;49.784;30.150;2023-06-22T02:03:34;99930.00;;;21.68;69.15
61474;BME280;53694;49.784;30.150;2023-06-22T02:04:54;99934.16;;;21.80;68.91
61474;BME280;53694;49.784;30.150;2023-06-22T02:06:02;99932.02;;;21.88;68.74
61474;BME280;53694;49.784;30.150;2023-06-22T02:07:02;99929.80;;;21.79;68.78
61474;BME280;53694;49.784;30.150;2023-06-22T02:08:10;99930.56;;;21.60;69.20
61474;BME280;53694;49.784;30.150;2023-06-22T02:09:16;99935.88;;;21.31;69.92
61474;BME280;53694;49.784;30.150;2023-06-22T02:10:20;99930.49;;;20.96;70.39
61474;BME280;53694;49.784;30.150;2023-06-22T02:11:23;99931.87;;;20.61;71.47
61474;BME280;53694;49.784;30.150;2023-06-22T02:12:27;99933.09;;;20.30;72.61
61474;BME280;53694;49.784;30.150;2023-06-22T02:13:30;99931.02;;;20.07;73.65
61474;BME280;53694;49.784;30.150;2023-06-22T02:14:32;99935.94;;;19.95;74.22
61474;BME280;53694;49.784;30.150;2023-06-22T02:15:36;99931.53;;;19.98;74.78
61474;BME280;53694;49.784;30.150;2023-06-22T02:16:38;99930.94;;;20.14;74.74
61474;BME280;53694;49.784;30.150;2023-06-22T02:17:39;99935.05;;;20.33;74.07
61474;BME280;53694;49.784;30.150;2023-06-22T02:18:48;99942.83;;;20.49;73.30
61474;BME280;53694;49.784;30.150;2023-06-22T02:19:50;99929.81;;;20.65;72.87
61474;BME280;53694;49.784;30.150;2023-06-22T02:20:51;99926.73;;;20.83;72.46
61474;BME280;53694;49.784;30.150;2023-06-22T02:21:53;99935.58;;;21.02;71.85
61474;BME280;53694;49.784;30.150;2023-06-22T02:22:55;99932.41;;;21.23;71.49
61474;BME280;53694;49.784;30.150;2023-06-22T02:23:56;99942.50;;;21.40;70.88
61474;BME280;53694;49.784;30.150;2023-06-22T02:24:58;99939.02;;;21.56;70.92
61474;BME280;53694;49.784;30.150;2023-06-22T02:25:59;99942.68;;;21.73;70.44
61474;BME280;53694;49.784;30.150;2023-06-22T02:27:02;99935.59;;;21.88;69.83
61474;BME280;53694;49.784;30.150;2023-06-22T02:28:04;99930.13;;;22.01;69.20
61474;BME280;53694;49.784;30.150;2023-06-22T02:29:05;99938.28;;;22.12;68.53
61474;BME280;53694;49.784;30.150;2023-06-22T02:30:08;99934.66;;;22.15;68.23
61474;BME280;53694;49.784;30.150;2023-06-22T02:31:10;99933.20;;;22.07;68.03
61474;BME280;53694;49.784;30.150;2023-06-22T02:32:11;99932.86;;;21.85;68.44
61474;BME280;53694;49.784;30.150;2023-06-22T02:33:13;99920.02;;;21.48;69.23
61474;BME280;53694;49.784;30.150;2023-06-22T02:34:14;99939.59;;;21.24;70.44
61474;BME280;53694;49.784;30.150;2023-06-22T02:35:16;99928.68;;;20.86;71.37
61474;BME280;53694;49.784;30.150;2023-06-22T02:36:17;99937.11;;;20.56;72.03
61474;BME280;53694;49.784;30.150;2023-06-22T02:37:19;99928.68;;;20.32;73.01
61474;BME280;53694;49.784;30.150;2023-06-22T02:38:21;99929.98;;;20.24;73.37
61474;BME280;53694;49.784;30.150;2023-06-22T02:39:24;99931.16;;;20.27;73.68
61474;BME280;53694;49.784;30.150;2023-06-22T02:40:26;99932.69;;;20.31;73.16
61474;BME280;53694;49.784;30.150;2023-06-22T02:41:28;99935.35;;;20.38;72.65
61474;BME280;53694;49.784;30.150;2023-06-22T02:42:29;99932.85;;;20.47;72.18
61474;BME280;53694;49.784;30.150;2023-06-22T02:43:31;99935.55;;;20.55;71.91
61474;BME280;53694;49.784;30.150;2023-06-22T02:44:32;99938.19;;;20.65;71.75
61474;BME280;53694;49.784;30.150;2023-06-22T02:45:34;99939.66;;;20.74;71.37
61474;BME280;53694;49.784;30.150;2023-06-22T02:46:36;99941.17;;;20.78;70.92
61474;BME280;53694;49.784;30.150;2023-06-22T02:47:37;99934.72;;;20.81;70.40
61474;BME280;53694;49.784;30.150;2023-06-22T02:48:40;99943.83;;;20.85;70.15
61474;BME280;53694;49.784;30.150;2023-06-22T02:49:41;99943.37;;;20.90;69.91
61474;BME280;53694;49.784;30.150;2023-06-22T02:50:43;99947.67;;;20.95;69.57
61474;BME280;53694;49.784;30.150;2023-06-22T02:51:46;99947.97;;;21.01;69.52
61474;BME280;53694;49.784;30.150;2023-06-22T02:52:48;99945.97;;;21.01;69.39
61474;BME280;53694;49.784;30.150;2023-06-22T02:53:50;99950.09;;;20.93;69.70
61474;BME280;53694;49.784;30.150;2023-06-22T02:54:51;99950.03;;;20.73;70.32
61474;BME280;53694;49.784;30.150;2023-06-22T02:55:53;99947.19;;;20.50;71.10
61474;BME280;53694;49.784;30.150;2023-06-22T02:56:54;99944.28;;;20.26;72.11
61474;BME280;53694;49.784;30.150;2023-06-22T02:57:56;99953.28;;;20.10;73.13
61474;BME280;53694;49.784;30.150;2023-06-22T02:58:57;99955.69;;;20.08;73.63
61474;BME280;53694;49.784;30.150;2023-06-22T02:59:59;99954.07;;;20.11;73.84
61474;BME280;53694;49.784;30.150;2023-06-22T03:01:01;99949.16;;;20.22;73.72
61474;BME280;53694;49.784;30.150;2023-06-22T03:02:02;99952.95;;;20.35;73.45
61474;BME280;53694;49.784;30.150;2023-06-22T03:03:04;99952.77;;;20.50;72.78
61474;BME280;53694;49.784;30.150;2023-06-22T03:04:06;99956.20;;;20.61;72.28
61474;BME280;53694;49.784;30.150;2023-06-22T03:05:08;99955.96;;;20.75;71.65
61474;BME280;53694;49.784;30.150;2023-06-22T03:06:10;99947.84;;;20.84;71.05
61474;BME280;53694;49.784;30.150;2023-06-22T03:07:11;99955.27;;;20.94;70.86
61474;BME280;53694;49.784;30.150;2023-06-22T03:08:13;99952.66;;;21.07;70.81
61474;BME280;53694;49.784;30.150;2023-06-22T03:09:14;99956.36;;;21.24;70.33
61474;BME280;53694;49.784;30.150;2023-06-22T03:10:16;99952.95;;;21.36;69.67
61474;BME280;53694;49.784;30.150;2023-06-22T03:11:17;99951.54;;;21.48;69.08
61474;BME280;53694;49.784;30.150;2023-06-22T03:12:19;99954.94;;;21.59;68.62
61474;BME280;53694;49.784;30.150;2023-06-22T03:13:20;99954.08;;;21.62;68.07
61474;BME280;53694;49.784;30.150;2023-06-22T03:14:22;99956.72;;;21.50;68.23
61474;BME280;53694;49.784;30.150;2023-06-22T03:15:23;99952.69;;;21.27;68.95
61474;BME280;53694;49.784;30.150;2023-06-22T03:16:25;99953.61;;;20.97;69.77
61474;BME280;53694;49.784;30.150;2023-06-22T03:17:27;99950.92;;;20.66;70.88
61474;BME280;53694;49.784;30.150;2023-06-22T03:18:28;99952.09;;;20.38;71.94
61474;BME280;53694;49.784;30.150;2023-06-22T03:19:30;99956.43;;;20.12;72.93
61474;BME280;53694;49.784;30.150;2023-06-22T03:20:32;99966.98;;;19.97;74.11
61474;BME280;53694;49.784;30.150;2023-06-22T03:21:33;99963.03;;;19.95;74.97
61474;BME280;53694;49.784;30.150;2023-06-22T03:22:35;99948.18;;;20.05;75.02
61474;BME280;53694;49.784;30.150;2023-06-22T03:23:37;99950.30;;;20.25;74.65
61474;BME280;53694;49.784;30.150;2023-06-22T03:24:38;99954.36;;;20.47;73.89
61474;BME280;53694;49.784;30.150;2023-06-22T03:25:40;99945.28;;;20.70;73.23
61474;BME280;53694;49.784;30.150;2023-06-22T03:26:42;99953.66;;;20.93;72.18
61474;BME280;53694;49.784;30.150;2023-06-22T03:27:44;99951.67;;;21.17;71.23
61474;BME280;53694;49.784;30.150;2023-06-22T03:28:46;99945.79;;;21.35;70.47
61474;BME280;53694;49.784;30.150;2023-06-22T03:29:47;99947.05;;;21.54;69.71
61474;BME280;53694;49.784;30.150;2023-06-22T03:30:49;99946.33;;;21.70;69.00
61474;BME280;53694;49.784;30.150;2023-06-22T03:31:50;99947.70;;;21.82;68.21
61474;BME280;53694;49.784;30.150;2023-06-22T03:32:52;99940.47;;;21.84;67.70
61474;BME280;53694;49.784;30.150;2023-06-22T03:33:53;99945.47;;;21.73;67.79
61474;BME280;53694;49.784;30.150;2023-06-22T03:34:55;99956.63;;;21.53;68.38
61474;BME280;53694;49.784;30.150;2023-06-22T03:35:56;99955.48;;;21.27;69.47
61474;BME280;53694;49.784;30.150;2023-06-22T03:36:57;99949.25;;;20.96;70.50
61474;BME280;53694;49.784;30.150;2023-06-22T03:37:59;99940.97;;;20.65;71.69
61474;BME280;53694;49.784;30.150;2023-06-22T03:39:01;99951.30;;;20.38;72.96
61474;BME280;53694;49.784;30.150;2023-06-22T03:40:03;99953.98;;;20.18;74.05
61474;BME280;53694;49.784;30.150;2023-06-22T03:41:04;99954.42;;;20.13;74.72
61474;BME280;53694;49.784;30.150;2023-06-22T03:42:06;99952.34;;;20.20;75.05
61474;BME280;53694;49.784;30.150;2023-06-22T03:43:08;99946.59;;;20.35;74.85
61474;BME280;53694;49.784;30.150;2023-06-22T03:44:09;99955.86;;;20.55;74.38
61474;BME280;53694;49.784;30.150;2023-06-22T03:45:11;99954.75;;;20.76;73.72
61474;BME280;53694;49.784;30.150;2023-06-22T03:46:13;99954.83;;;20.96;73.05
61474;BME280;53694;49.784;30.150;2023-06-22T03:47:15;99953.25;;;21.18;72.63
61474;BME280;53694;49.784;30.150;2023-06-22T03:48:16;99953.33;;;21.38;72.16
61474;BME280;53694;49.784;30.150;2023-06-22T03:49:18;99958.14;;;21.58;71.39
61474;BME280;53694;49.784;30.150;2023-06-22T03:50:19;99947.41;;;21.76;71.11
61474;BME280;53694;49.784;30.150;2023-06-22T03:51:21;99953.42;;;21.94;70.54
61474;BME280;53694;49.784;30.150;2023-06-22T03:52:22;99959.38;;;22.16;69.67
61474;BME280;53694;49.784;30.150;2023-06-22T03:53:24;99957.00;;;22.35;68.97
61474;BME280;53694;49.784;30.150;2023-06-22T03:54:25;99950.91;;;22.56;68.28
61474;BME280;53694;49.784;30.150;2023-06-22T03:55:27;99958.19;;;22.70;67.56
61474;BME280;53694;49.784;30.150;2023-06-22T03:56:28;99954.16;;;22.71;67.00
61474;BME280;53694;49.784;30.150;2023-06-22T03:57:30;99958.00;;;22.61;66.93
61474;BME280;53694;49.784;30.150;2023-06-22T03:58:31;99956.82;;;22.42;67.05
61474;BME280;53694;49.784;30.150;2023-06-22T03:59:33;99949.34;;;22.19;67.36
61474;BME280;53694;49.784;30.150;2023-06-22T04:00:35;99958.23;;;21.94;67.83
61474;BME280;53694;49.784;30.150;2023-06-22T04:01:36;99961.18;;;21.67;68.94
61474;BME280;53694;49.784;30.150;2023-06-22T04:02:38;99966.07;;;21.39;69.71
61474;BME280;53694;49.784;30.150;2023-06-22T04:03:40;99964.85;;;21.17;70.70
61474;BME280;53694;49.784;30.150;2023-06-22T04:04:42;99961.64;;;20.95;71.61
61474;BME280;53694;49.784;30.150;2023-06-22T04:05:44;99963.25;;;20.69;73.46
61474;BME280;53694;49.784;30.150;2023-06-22T04:06:46;99963.25;;;20.69;73.46
61474;BME280;53694;49.784;30.150;2023-06-22T04:07:48;99962.77;;;20.74;74.10
61474;BME280;53694;49.784;30.150;2023-06-22T04:08:49;99972.47;;;20.89;74.06
61474;BME280;53694;49.784;30.150;2023-06-22T04:09:51;99965.34;;;21.12;73.86
61474;BME280;53694;49.784;30.150;2023-06-22T04:10:52;99975.30;;;21.36;73.40
61474;BME280;53694;49.784;30.150;2023-06-22T04:11:54;99975.22;;;21.63;72.85
61474;BME280;53694;49.784;30.150;2023-06-22T04:12:55;99970.34;;;21.87;72.04
61474;BME280;53694;49.784;30.150;2023-06-22T04:13:57;99970.27;;;22.11;71.15
61474;BME280;53694;49.784;30.150;2023-06-22T04:14:58;99976.66;;;22.31;70.38
61474;BME280;53694;49.784;30.150;2023-06-22T04:16:00;99980.20;;;22.52;69.80
61474;BME280;53694;49.784;30.150;2023-06-22T04:17:02;99976.63;;;22.67;69.21
61474;BME280;53694;49.784;30.150;2023-06-22T04:18:03;99974.62;;;22.84;68.72
61474;BME280;53694;49.784;30.150;2023-06-22T04:19:05;99980.80;;;22.95;68.30
61474;BME280;53694;49.784;30.150;2023-06-22T04:20:07;99987.10;;;23.00;67.89
61474;BME280;53694;49.784;30.150;2023-06-22T04:21:10;99984.13;;;22.90;67.80
61474;BME280;53694;49.784;30.150;2023-06-22T04:22:12;99995.28;;;22.74;67.94
61474;BME280;53694;49.784;30.150;2023-06-22T04:23:13;99991.74;;;22.54;68.31
61474;BME280;53694;49.784;30.150;2023-06-22T04:24:15;99984.68;;;22.29;68.95
61474;BME280;53694;49.784;30.150;2023-06-22T04:25:17;99982.68;;;22.10;69.59
61474;BME280;53694;49.784;30.150;2023-06-22T04:26:18;99984.69;;;21.89;70.25
61474;BME280;53694;49.784;30.150;2023-06-22T04:27:20;99982.66;;;21.70;71.05
61474;BME280;53694;49.784;30.150;2023-06-22T04:28:22;99986.17;;;21.54;71.66
61474;BME280;53694;49.784;30.150;2023-06-22T04:29:23;99979.98;;;21.43;72.71
61474;BME280;53694;49.784;30.150;2023-06-22T04:30:25;99991.83;;;21.51;73.34
61474;BME280;53694;49.784;30.150;2023-06-22T04:31:26;99988.34;;;21.66;73.24
61474;BME280;53694;49.784;30.150;2023-06-22T04:32:28;99991.85;;;21.90;72.72
61474;BME280;53694;49.784;30.150;2023-06-22T04:33:29;99985.78;;;22.15;72.00
61474;BME280;53694;49.784;30.150;2023-06-22T04:34:31;99985.17;;;22.44;71.49
61474;BME280;53694;49.784;30.150;2023-06-22T04:35:33;99990.91;;;22.73;70.52
61474;BME280;53694;49.784;30.150;2023-06-22T04:36:35;99996.29;;;23.00;69.19
61474;BME280;53694;49.784;30.150;2023-06-22T04:37:37;99998.11;;;23.23;68.15
61474;BME280;53694;49.784;30.150;2023-06-22T04:38:39;99992.77;;;23.45;67.50
61474;BME280;53694;49.784;30.150;2023-06-22T04:39:42;99994.39;;;23.59;66.38
61474;BME280;53694;49.784;30.150;2023-06-22T04:40:44;100000.42;;;23.57;66.12
61474;BME280;53694;49.784;30.150;2023-06-22T04:41:45;99998.79;;;23.43;65.78
61474;BME280;53694;49.784;30.150;2023-06-22T04:42:47;99996.54;;;23.22;66.40
61474;BME280;53694;49.784;30.150;2023-06-22T04:43:48;99995.14;;;22.98;66.82
61474;BME280;53694;49.784;30.150;2023-06-22T04:44:50;99998.08;;;22.74;67.79
61474;BME280;53694;49.784;30.150;2023-06-22T04:45:51;99995.41;;;22.51;68.64
61474;BME280;53694;49.784;30.150;2023-06-22T04:46:55;99988.70;;;22.28;69.55
61474;BME280;53694;49.784;30.150;2023-06-22T04:47:57;99995.44;;;22.11;70.51
61474;BME280;53694;49.784;30.150;2023-06-22T04:48:59;99995.80;;;21.93;71.61
61474;BME280;53694;49.784;30.150;2023-06-22T04:50:00;99992.08;;;21.80;72.13
61474;BME280;53694;49.784;30.150;2023-06-22T04:51:02;99996.16;;;21.75;72.59
61474;BME280;53694;49.784;30.150;2023-06-22T04:52:05;99997.57;;;21.83;72.60
61474;BME280;53694;49.784;30.150;2023-06-22T04:53:07;100001.17;;;22.04;72.18
61474;BME280;53694;49.784;30.150;2023-06-22T04:54:09;99996.66;;;22.30;71.56
61474;BME280;53694;49.784;30.150;2023-06-22T04:55:11;100009.95;;;22.62;70.38
61474;BME280;53694;49.784;30.150;2023-06-22T04:56:13;100012.13;;;22.90;69.55
61474;BME280;53694;49.784;30.150;2023-06-22T04:57:14;100011.86;;;23.17;68.40
61474;BME280;53694;49.784;30.150;2023-06-22T04:58:16;100008.44;;;23.42;67.55
61474;BME280;53694;49.784;30.150;2023-06-22T04:59:17;100020.31;;;23.63;67.37
61474;BME280;53694;49.784;30.150;2023-06-22T05:00:20;100022.16;;;23.69;67.35
61474;BME280;53694;49.784;30.150;2023-06-22T05:01:21;100021.04;;;23.67;67.33
61474;BME280;53694;49.784;30.150;2023-06-22T05:02:23;100020.86;;;23.58;67.46
61474;BME280;53694;49.784;30.150;2023-06-22T05:03:26;100019.98;;;23.44;67.78
61474;BME280;53694;49.784;30.150;2023-06-22T05:04:28;100025.17;;;23.30;68.41
61474;BME280;53694;49.784;30.150;2023-06-22T05:05:30;100016.32;;;23.15;68.92
61474;BME280;53694;49.784;30.150;2023-06-22T05:06:32;100015.45;;;23.02;69.36
61474;BME280;53694;49.784;30.150;2023-06-22T05:07:36;100018.56;;;22.87;69.66
61474;BME280;53694;49.784;30.150;2023-06-22T05:08:37;100014.09;;;22.74;69.94
61474;BME280;53694;49.784;30.150;2023-06-22T05:09:39;100020.78;;;22.60;70.36
61474;BME280;53694;49.784;30.150;2023-06-22T05:10:40;100021.81;;;22.50;70.58
61474;BME280;53694;49.784;30.150;2023-06-22T05:11:42;100016.47;;;22.39;70.58
61474;BME280;53694;49.784;30.150;2023-06-22T05:12:44;100014.09;;;22.37;70.72
61474;BME280;53694;49.784;30.150;2023-06-22T05:13:46;100020.17;;;22.52;70.77
61474;BME280;53694;49.784;30.150;2023-06-22T05:14:47;100023.62;;;22.76;70.39
61474;BME280;53694;49.784;30.150;2023-06-22T05:15:48;100018.95;;;23.06;69.75
61474;BME280;53694;49.784;30.150;2023-06-22T05:16:50;100029.82;;;23.36;68.60
61474;BME280;53694;49.784;30.150;2023-06-22T05:17:51;100029.45;;;23.67;67.56
61474;BME280;53694;49.784;30.150;2023-06-22T05:18:54;100024.83;;;23.89;66.92
61474;BME280;53694;49.784;30.150;2023-06-22T05:19:56;100026.89;;;24.02;66.68
61474;BME280;53694;49.784;30.150;2023-06-22T05:20:58;100030.81;;;24.04;66.47
61474;BME280;53694;49.784;30.150;2023-06-22T05:21:59;100025.75;;;23.99;66.57
61474;BME280;53694;49.784;30.150;2023-06-22T05:23:01;100032.00;;;23.90;66.23
61474;BME280;53694;49.784;30.150;2023-06-22T05:24:03;100027.13;;;23.78;65.97
61474;BME280;53694;49.784;30.150;2023-06-22T05:25:07;100027.94;;;23.62;65.53
61474;BME280;53694;49.784;30.150;2023-06-22T05:26:10;100020.25;;;23.50;65.58
61474;BME280;53694;49.784;30.150;2023-06-22T05:27:11;100019.73;;;23.39;65.64
61474;BME280;53694;49.784;30.150;2023-06-22T05:28:12;100018.42;;;23.27;65.51
61474;BME280;53694;49.784;30.150;2023-06-22T05:29:14;100018.70;;;23.16;65.75
61474;BME280;53694;49.784;30.150;2023-06-22T05:30:15;100020.55;;;23.07;65.99
61474;BME280;53694;49.784;30.150;2023-06-22T05:31:17;100021.94;;;22.99;66.37